Terminal Aerodrome Forecast
Issued by NWS Nashville, TN

Home | Current Version | Previous Version | Text Only | Print | Product List | Glossary On
Versions: 1 2 3 4 5 6 7 8 9 10 11 12 13 14 15 16 17 18
751
FTUS44 KOHX 261720
TAFCSV
TAF
KCSV 261720Z 2618/2718 27005KT P6SM SCT040
     FM261900 27005KT P6SM VCTS SCT045CB BKN100
     FM270100 00000KT P6SM SCT100 SCT250
     FM270600 00000KT 4SM BR SCT250=

USA.gov is the U.S. government's official web portal to all federal, state and local government web resources and services.